OLR weather

Salerno Airport
Khost, Khost Province, Afghanistan

Public forecast

Using degrees Celsius for public forecast. Weather courtesy of forecast.io.

Closest aviation weather report (METAR) to Salerno Airport

Report is more than 2 hours old.

Closest report is Hamid Karzai International Airport, 81.1 nm (150.2 km) NNW. Retrieved 2020/08/06 17:50 UTC (4 hours ago):

OAKB 061750Z 09006KT CAVOK 26/13 Q1013 RMK A2992 BLU BLU LAST

Closest aviation forecast (TAF) to Salerno Airport

Closest forecast is Jalalabad Airport, 67.8 nm (125.6 km) NNE. Retrieved 2020/08/06 16:15 UTC (5 hours ago):

TAF OAJL 061600Z 0616/0722 VRB06KT 9999 FEW100 QNH2951INS BECMG 0706/0707 13009KT 9999 FEW100 QNH2947INS BECMG 0714/0715 VRB06KT 9999 FEW120 QNH2954INS TX41/0711Z TN25/0701Z